createdAt,value
2024-01-11T00:00:37.748Z,9.77
2024-01-11T00:03:04.904Z,10.60
2024-01-11T00:05:31.631Z,9.30
2024-01-11T00:07:58.577Z,10.23
2024-01-11T00:10:25.616Z,10.90
2024-01-11T00:12:52.388Z,10.90
2024-01-11T00:15:19.223Z,10.68
2024-01-11T00:17:46.245Z,10.70
2024-01-11T00:20:13.104Z,12.23
2024-01-11T00:22:39.913Z,11.77
2024-01-11T00:25:06.874Z,9.98
2024-01-11T00:27:33.600Z,10.53
2024-01-11T00:30:00.439Z,14.38
2024-01-11T00:32:27.391Z,12.60
2024-01-11T00:34:54.277Z,10.93
2024-01-11T00:37:21.065Z,12.95
2024-01-11T00:39:47.734Z,11.90
2024-01-11T00:42:14.473Z,11.40
2024-01-11T00:44:41.171Z,11.75
2024-01-11T00:47:07.890Z,13.98
2024-01-11T00:49:34.668Z,11.63
2024-01-11T00:52:01.368Z,10.20
2024-01-11T00:54:28.080Z,13.30
2024-01-11T00:56:54.743Z,10.90
2024-01-11T00:59:21.453Z,11.88
2024-01-11T01:01:51.462Z,12.43
2024-01-11T01:04:18.175Z,13.60
2024-01-11T01:06:45.022Z,11.27
2024-01-11T01:09:11.833Z,10.43
2024-01-11T01:11:38.687Z,12.68
2024-01-11T01:14:06.441Z,11.40
2024-01-11T01:16:33.213Z,11.57
2024-01-11T01:19:00.180Z,12.85
2024-01-11T01:21:27.116Z,10.88
2024-01-11T01:23:53.799Z,11.27
2024-01-11T01:26:20.573Z,12.32
2024-01-11T01:28:47.362Z,10.93
2024-01-11T01:31:14.120Z,10.38
2024-01-11T01:33:41.769Z,9.18
2024-01-11T01:36:11.902Z,8.80
2024-01-11T01:38:38.803Z,10.75
2024-01-11T01:41:05.678Z,10.15
2024-01-11T01:43:32.446Z,7.63
2024-01-11T01:46:00.028Z,9.63
2024-01-11T01:48:28.412Z,9.85
2024-01-11T01:50:56.278Z,8.38
2024-01-11T01:55:53.574Z,11.55
2024-01-11T01:58:21.405Z,11.15
2024-01-11T02:03:17.462Z,8.63
2024-01-11T02:05:44.649Z,9.40
2024-01-11T02:08:17.597Z,10.70
2024-01-11T02:10:44.539Z,9.32
2024-01-11T02:13:12.591Z,11.30
2024-01-11T02:15:39.285Z,11.90
2024-01-11T02:18:06.184Z,10.43
2024-01-11T02:20:33.345Z,10.37
2024-01-11T02:23:06.503Z,10.43
2024-01-11T02:25:33.303Z,11.23
2024-01-11T02:28:00.058Z,10.32
2024-01-11T02:30:26.939Z,8.68
2024-01-11T02:32:54.789Z,9.38
2024-01-11T02:35:22.696Z,8.60
2024-01-11T02:37:49.888Z,9.65
2024-01-11T02:40:16.802Z,8.90
2024-01-11T02:42:43.566Z,8.18
2024-01-11T02:45:12.452Z,6.25
2024-01-11T02:47:40.432Z,8.57
2024-01-11T02:50:08.186Z,8.02
2024-01-11T02:52:35.538Z,7.63
2024-01-11T02:55:02.252Z,9.55
2024-01-11T02:57:29.022Z,8.52
2024-01-11T02:59:55.761Z,7.72
2024-01-11T03:02:22.742Z,9.55
2024-01-11T03:04:49.515Z,7.85
2024-01-11T03:07:16.311Z,10.18
2024-01-11T03:09:43.150Z,9.02
2024-01-11T03:12:09.887Z,8.50
2024-01-11T03:14:36.753Z,8.98
2024-01-11T03:17:03.674Z,8.13
2024-01-11T03:19:30.472Z,7.88
2024-01-11T03:21:57.218Z,8.32
2024-01-11T03:24:23.943Z,9.50
2024-01-11T03:26:50.657Z,8.32
2024-01-11T03:29:17.414Z,8.90
2024-01-11T03:31:44.166Z,9.10
2024-01-11T03:34:11.042Z,8.45
2024-01-11T03:36:37.816Z,9.15
2024-01-11T03:39:04.520Z,9.15
2024-01-11T03:41:31.284Z,6.53
2024-01-11T03:43:58.001Z,8.35
2024-01-11T03:46:24.760Z,8.95
2024-01-11T03:48:51.611Z,8.73
2024-01-11T03:51:18.410Z,8.75
2024-01-11T03:53:45.198Z,8.70
2024-01-11T03:56:12.088Z,8.88
2024-01-11T03:58:38.848Z,7.35
2024-01-11T04:01:05.649Z,8.05
2024-01-11T04:03:32.365Z,8.38
2024-01-11T04:05:59.127Z,7.75
2024-01-11T04:08:25.899Z,9.10
2024-01-11T04:10:52.619Z,8.25
2024-01-11T04:13:19.754Z,7.38
2024-01-11T04:15:47.098Z,7.22
2024-01-11T04:18:14.006Z,7.35
2024-01-11T04:20:40.967Z,9.23
2024-01-11T04:23:07.759Z,8.90
2024-01-11T04:25:34.581Z,9.40
2024-01-11T04:28:01.272Z,8.48
2024-01-11T04:30:28.186Z,9.52
2024-01-11T04:32:55.188Z,6.83
2024-01-11T04:35:21.995Z,9.50
2024-01-11T04:37:48.677Z,7.53
2024-01-11T04:40:15.403Z,9.63
2024-01-11T04:42:42.100Z,10.23
2024-01-11T04:45:09.256Z,8.27
2024-01-11T04:47:36.140Z,8.55
2024-01-11T04:50:03.073Z,7.47
2024-01-11T04:52:29.764Z,7.05
2024-01-11T04:54:56.470Z,8.70
2024-01-11T04:57:23.140Z,7.25
2024-01-11T04:59:49.865Z,7.22
2024-01-11T05:02:16.735Z,8.77
2024-01-11T05:04:43.515Z,9.48
2024-01-11T05:07:10.325Z,8.30
2024-01-11T05:09:37.054Z,8.15
2024-01-11T05:12:04.040Z,10.07
2024-01-11T05:14:30.808Z,9.33
2024-01-11T05:16:57.654Z,8.23
2024-01-11T05:19:24.534Z,7.47
2024-01-11T05:21:51.241Z,7.07
2024-01-11T05:24:17.973Z,6.05
2024-01-11T05:26:44.740Z,7.80
2024-01-11T05:29:11.518Z,9.15
2024-01-11T05:31:38.429Z,7.55
2024-01-11T05:34:05.462Z,6.77
2024-01-11T05:36:32.307Z,7.80
2024-01-11T05:38:59.015Z,9.00
2024-01-11T05:41:25.743Z,8.30
2024-01-11T05:43:52.402Z,8.00
2024-01-11T05:46:19.120Z,7.95
2024-01-11T05:48:45.920Z,8.40
2024-01-11T05:51:12.689Z,7.65
2024-01-11T05:53:39.618Z,8.65
2024-01-11T05:56:12.347Z,8.20
2024-01-11T05:58:40.752Z,7.22
2024-01-11T06:01:07.809Z,7.82
2024-01-11T06:03:34.705Z,8.63
2024-01-11T06:06:02.318Z,9.57
2024-01-11T06:08:30.503Z,8.75
2024-01-11T06:10:57.712Z,8.18
2024-01-11T06:13:24.528Z,7.88
2024-01-11T06:15:51.337Z,7.60
2024-01-11T06:18:18.231Z,8.65
2024-01-11T06:20:45.197Z,8.00
2024-01-11T06:23:11.925Z,6.50
2024-01-11T06:25:38.721Z,7.10
2024-01-11T06:28:05.761Z,7.38
2024-01-11T06:30:32.520Z,7.27
2024-01-11T06:32:59.367Z,8.98
2024-01-11T06:35:26.235Z,7.97
2024-01-11T06:37:52.966Z,9.48
2024-01-11T06:40:19.677Z,9.43
2024-01-11T06:42:46.331Z,10.38
2024-01-11T06:45:13.072Z,8.85
2024-01-11T06:47:40.061Z,7.65
2024-01-11T06:50:07.763Z,8.80
2024-01-11T06:52:34.603Z,7.90
2024-01-11T06:55:01.307Z,7.60
2024-01-11T06:57:28.013Z,7.20
2024-01-11T06:59:54.797Z,7.63
2024-01-11T07:02:21.599Z,7.88
2024-01-11T07:04:48.465Z,10.07
2024-01-11T07:07:15.199Z,8.45
2024-01-11T07:09:41.906Z,9.75
2024-01-11T07:12:08.718Z,8.27
2024-01-11T07:14:35.556Z,9.35
2024-01-11T07:17:02.385Z,8.98
2024-01-11T07:19:29.162Z,9.50
2024-01-11T07:21:55.998Z,8.45
2024-01-11T07:24:22.655Z,9.70
2024-01-11T07:26:49.454Z,8.77
2024-01-11T07:29:16.263Z,8.73
2024-01-11T07:31:43.089Z,10.45
2024-01-11T07:34:09.985Z,9.90
2024-01-11T07:36:36.738Z,10.75
2024-01-11T07:39:03.553Z,8.52
2024-01-11T07:41:30.409Z,10.40
2024-01-11T07:43:57.211Z,9.95
2024-01-11T07:46:33.011Z,10.32
2024-01-11T07:49:05.970Z,9.15
2024-01-11T07:51:33.355Z,11.30
2024-01-11T07:54:00.087Z,8.77
2024-01-11T07:56:27.574Z,9.27
2024-01-11T07:58:54.425Z,9.57
2024-01-11T08:01:21.356Z,12.05
2024-01-11T08:03:48.175Z,10.40
2024-01-11T08:06:15.047Z,9.82
2024-01-11T08:08:41.955Z,9.20
2024-01-11T08:11:09.278Z,10.52
2024-01-11T08:13:36.239Z,11.05
2024-01-11T08:16:03.135Z,10.10
2024-01-11T08:18:30.870Z,9.80
2024-01-11T08:20:57.926Z,9.77
2024-01-11T08:23:24.676Z,12.37
2024-01-11T08:25:51.462Z,9.05
2024-01-11T08:28:18.160Z,11.35
2024-01-11T08:30:45.096Z,9.38
2024-01-11T08:35:38.696Z,9.95
2024-01-11T08:38:05.354Z,9.05
2024-01-11T08:40:32.026Z,10.98
2024-01-11T08:42:58.705Z,8.82
2024-01-11T08:45:25.450Z,9.10
2024-01-11T08:47:52.232Z,10.13
2024-01-11T08:50:22.661Z,10.60
2024-01-11T08:52:50.842Z,13.93
2024-01-11T08:55:17.537Z,15.07
2024-01-11T08:57:44.305Z,13.50
2024-01-11T09:00:11.691Z,15.65
2024-01-11T09:02:38.474Z,13.65
2024-01-11T09:05:05.643Z,12.02
2024-01-11T09:07:35.962Z,11.13
2024-01-11T09:10:02.718Z,14.25
2024-01-11T09:12:29.517Z,12.88
2024-01-11T09:14:56.217Z,12.48
2024-01-11T09:17:23.321Z,14.25
2024-01-11T09:19:50.601Z,12.57
2024-01-11T09:22:17.733Z,11.80
2024-01-11T09:24:44.426Z,10.47
2024-01-11T09:27:11.168Z,12.32
2024-01-11T09:29:37.995Z,11.77
2024-01-11T09:32:05.215Z,12.20
2024-01-11T09:34:32.099Z,12.88
2024-01-11T09:36:59.201Z,12.35
2024-01-11T09:39:26.006Z,15.23
2024-01-11T09:41:59.093Z,13.48
2024-01-11T09:44:27.368Z,10.52
2024-01-11T09:46:55.251Z,13.65
2024-01-11T09:49:23.800Z,12.25
2024-01-11T09:51:52.005Z,13.30
2024-01-11T09:54:20.449Z,10.20
2024-01-11T09:56:47.340Z,13.10
2024-01-11T09:59:15.114Z,10.88
2024-01-11T10:04:09.258Z,9.82
2024-01-11T10:06:39.709Z,10.90
2024-01-11T10:09:06.417Z,11.32
2024-01-11T10:11:33.130Z,12.68
2024-01-11T10:13:59.792Z,11.73
2024-01-11T10:16:26.495Z,12.57
2024-01-11T10:18:55.973Z,13.30
2024-01-11T10:21:23.213Z,10.38
2024-01-11T10:23:52.881Z,13.00
2024-01-11T10:26:20.365Z,10.32
2024-01-11T10:28:47.899Z,10.07
2024-01-11T10:31:15.000Z,11.15
2024-01-11T10:33:42.408Z,13.30
2024-01-11T10:36:09.383Z,13.68
2024-01-11T10:38:40.193Z,16.92
2024-01-11T10:41:08.070Z,13.25
2024-01-11T10:43:39.134Z,12.38
2024-01-11T10:46:06.578Z,12.25
2024-01-11T10:48:38.421Z,12.40
2024-01-11T10:51:09.816Z,13.68
2024-01-11T10:53:45.595Z,12.43
2024-01-11T10:56:13.707Z,13.20
2024-01-11T10:58:46.264Z,23.02
2024-01-11T11:01:14.163Z,31.50
2024-01-11T11:06:09.859Z,14.57
2024-01-11T11:08:38.450Z,12.95
2024-01-11T11:11:06.029Z,14.60
2024-01-11T11:13:33.781Z,14.25
2024-01-11T11:16:02.234Z,15.52
2024-01-11T11:18:29.609Z,12.38
2024-01-11T11:20:56.369Z,13.37
2024-01-11T11:23:23.077Z,14.05
2024-01-11T11:25:50.579Z,13.98
2024-01-11T11:28:19.096Z,15.02
2024-01-11T11:30:49.270Z,18.88
2024-01-11T11:33:20.963Z,17.90
2024-01-11T11:35:49.057Z,15.98
2024-01-11T11:40:52.726Z,16.58
2024-01-11T11:43:21.512Z,15.07
2024-01-11T11:45:49.993Z,15.32
2024-01-11T11:48:31.857Z,15.65
2024-01-11T11:51:10.162Z,14.75
2024-01-11T11:53:38.578Z,14.68
2024-01-11T11:56:06.130Z,11.10
2024-01-11T11:58:34.170Z,13.00
2024-01-11T12:03:31.231Z,16.83
2024-01-11T12:05:58.949Z,19.00
2024-01-11T12:08:25.825Z,17.15
2024-01-11T12:10:53.339Z,15.57
2024-01-11T12:13:20.318Z,13.55
2024-01-11T12:15:47.679Z,11.25
2024-01-11T12:18:14.871Z,13.75
2024-01-11T12:20:41.826Z,19.63
2024-01-11T12:23:09.134Z,15.88
2024-01-11T12:25:36.910Z,13.05
2024-01-11T12:28:03.867Z,12.52
2024-01-11T12:30:30.641Z,14.10
2024-01-11T12:32:57.935Z,13.13
2024-01-11T12:35:24.891Z,13.32
2024-01-11T12:38:10.125Z,15.43
2024-01-11T12:40:38.025Z,13.73
2024-01-11T12:43:05.959Z,14.40
2024-01-11T12:48:01.189Z,13.80
2024-01-11T12:53:12.802Z,17.25
2024-01-11T12:55:48.290Z,14.48
2024-01-11T12:58:22.031Z,13.88
2024-01-11T13:00:49.235Z,14.07
2024-01-11T13:03:15.966Z,15.30
2024-01-11T13:05:42.833Z,15.70
2024-01-11T13:08:10.309Z,13.80
2024-01-11T13:10:38.125Z,14.45
2024-01-11T13:13:09.226Z,14.75
2024-01-11T13:15:36.619Z,12.55
2024-01-11T13:18:04.030Z,12.80
2024-01-11T13:20:30.829Z,13.50
2024-01-11T13:23:16.460Z,12.40
2024-01-11T13:25:43.887Z,14.45
2024-01-11T13:28:11.561Z,14.70
2024-01-11T13:30:42.438Z,16.08
2024-01-11T13:33:10.497Z,14.95
2024-01-11T13:35:38.099Z,15.07
2024-01-11T13:38:05.584Z,13.40
2024-01-11T13:40:33.345Z,10.63
2024-01-11T13:43:00.724Z,13.38
2024-01-11T13:45:27.819Z,12.38
2024-01-11T13:47:55.497Z,13.87
2024-01-11T13:50:26.132Z,12.02
2024-01-11T13:52:53.992Z,14.50
2024-01-11T13:55:21.087Z,14.90
2024-01-11T13:57:48.653Z,14.50
2024-01-11T14:00:15.576Z,18.55
2024-01-11T14:02:42.366Z,16.65
2024-01-11T14:05:09.435Z,16.33
2024-01-11T14:07:36.566Z,17.33
2024-01-11T14:10:03.414Z,15.00
2024-01-11T14:12:30.423Z,14.67
2024-01-11T14:14:57.113Z,15.32
2024-01-11T14:17:24.003Z,14.32
2024-01-11T14:19:50.905Z,13.60
2024-01-11T14:22:17.753Z,14.43
2024-01-11T14:24:44.566Z,14.02
2024-01-11T14:27:11.347Z,16.67
2024-01-11T14:29:38.151Z,15.40
2024-01-11T14:32:05.288Z,13.93
2024-01-11T14:34:32.305Z,17.47
2024-01-11T14:36:59.565Z,14.50
2024-01-11T14:39:26.327Z,69.85
2024-01-11T14:41:53.876Z,43.47
2024-01-11T14:44:20.697Z,33.03
2024-01-11T14:46:47.533Z,23.00
2024-01-11T14:49:14.358Z,17.45
2024-01-11T14:51:41.121Z,17.85
2024-01-11T14:54:07.933Z,16.90
2024-01-11T14:56:34.779Z,17.55
2024-01-11T14:59:02.376Z,20.27
2024-01-11T15:01:29.279Z,25.27
2024-01-11T15:03:56.308Z,29.00
2024-01-11T15:06:23.547Z,27.05
2024-01-11T15:08:50.561Z,20.83
2024-01-11T15:11:17.431Z,17.30
2024-01-11T15:13:44.255Z,19.05
2024-01-11T15:16:11.046Z,20.00
2024-01-11T15:18:38.080Z,15.77
2024-01-11T15:21:05.247Z,17.67
2024-01-11T15:23:32.093Z,16.37
2024-01-11T15:25:59.102Z,14.98
2024-01-11T15:28:25.972Z,13.83
2024-01-11T15:30:52.813Z,13.25
2024-01-11T15:33:19.749Z,13.82
2024-01-11T15:35:46.619Z,15.30
2024-01-11T15:38:13.608Z,14.50
2024-01-11T15:40:40.367Z,19.42
2024-01-11T15:43:07.076Z,17.42
2024-01-11T15:45:34.779Z,17.70
2024-01-11T15:48:02.919Z,16.08
2024-01-11T15:50:30.154Z,14.13
2024-01-11T15:52:56.884Z,14.57
2024-01-11T15:55:23.549Z,16.48
2024-01-11T15:57:50.204Z,17.23
2024-01-11T16:00:17.224Z,15.90
2024-01-11T16:02:44.142Z,15.35
2024-01-11T16:05:11.380Z,20.13
2024-01-11T16:07:38.427Z,19.08
2024-01-11T16:10:05.581Z,17.88
2024-01-11T16:12:32.376Z,14.40
2024-01-11T16:15:00.718Z,14.63
2024-01-11T16:17:28.406Z,15.75
2024-01-11T16:19:56.148Z,20.83
2024-01-11T16:22:22.919Z,23.65
2024-01-11T16:24:49.838Z,15.80
2024-01-11T16:27:16.573Z,16.30
2024-01-11T16:29:43.804Z,17.63
2024-01-11T16:32:10.741Z,17.75
2024-01-11T16:34:37.561Z,18.35
2024-01-11T16:37:04.448Z,17.00
2024-01-11T16:39:31.695Z,24.33
2024-01-11T16:41:58.455Z,21.55
2024-01-11T16:44:25.148Z,19.02
2024-01-11T16:46:51.930Z,19.85
2024-01-11T16:49:18.731Z,18.67
2024-01-11T16:51:49.611Z,19.15
2024-01-11T16:54:18.736Z,19.73
2024-01-11T16:56:45.847Z,18.65
2024-01-11T16:59:12.575Z,21.13
2024-01-11T17:01:39.568Z,18.73
2024-01-11T17:04:07.573Z,16.42
2024-01-11T17:06:35.358Z,23.10
2024-01-11T17:09:02.681Z,19.60
2024-01-11T17:11:29.717Z,19.30
2024-01-11T17:13:56.515Z,22.43
2024-01-11T17:16:23.257Z,19.75
2024-01-11T17:18:50.444Z,20.88
2024-01-11T17:21:17.334Z,18.08
2024-01-11T17:23:44.175Z,16.90
2024-01-11T17:26:11.602Z,18.30
2024-01-11T17:28:38.423Z,15.90
2024-01-11T17:31:05.265Z,16.65
2024-01-11T17:33:32.419Z,17.70
2024-01-11T17:35:59.211Z,19.63
2024-01-11T17:38:25.927Z,19.88
2024-01-11T17:40:52.679Z,22.92
2024-01-11T17:43:19.378Z,24.25
2024-01-11T17:45:46.985Z,16.90
2024-01-11T17:48:13.809Z,15.02
2024-01-11T17:50:40.560Z,15.95
2024-01-11T17:53:07.567Z,17.52
2024-01-11T17:55:35.000Z,22.67
2024-01-11T17:58:01.729Z,18.17
2024-01-11T18:00:28.479Z,17.48
2024-01-11T18:02:55.287Z,17.20
2024-01-11T18:05:22.248Z,16.42
2024-01-11T18:07:49.328Z,17.38
2024-01-11T18:10:16.071Z,19.63
2024-01-11T18:12:42.820Z,20.05
2024-01-11T18:15:09.953Z,17.20
2024-01-11T18:17:36.870Z,16.83
2024-01-11T18:20:03.792Z,18.25
2024-01-11T18:22:33.042Z,18.15
2024-01-11T18:24:59.991Z,17.67
2024-01-11T18:27:26.684Z,17.48
2024-01-11T18:29:53.458Z,18.73
2024-01-11T18:32:20.616Z,19.83
2024-01-11T18:34:47.418Z,19.95
2024-01-11T18:37:14.178Z,18.95
2024-01-11T18:39:43.801Z,19.75
2024-01-11T18:42:10.597Z,18.67
2024-01-11T18:44:37.446Z,23.00
2024-01-11T18:47:04.388Z,20.80
2024-01-11T18:49:31.227Z,24.13
2024-01-11T18:51:57.946Z,20.00
2024-01-11T18:54:24.785Z,21.35
2024-01-11T18:56:51.597Z,23.10
2024-01-11T18:59:18.345Z,23.15
2024-01-11T19:01:48.797Z,19.02
2024-01-11T19:04:16.193Z,20.40
2024-01-11T19:06:43.297Z,19.98
2024-01-11T19:09:10.059Z,23.67
2024-01-11T19:11:36.784Z,24.27
2024-01-11T19:14:03.531Z,25.52
2024-01-11T19:16:30.262Z,25.67
2024-01-11T19:18:57.157Z,26.42
2024-01-11T19:21:23.961Z,20.45
2024-01-11T19:23:50.771Z,41.30
2024-01-11T19:26:17.539Z,32.08
2024-01-11T19:28:44.259Z,31.50
2024-01-11T19:31:11.120Z,26.98
2024-01-11T19:33:37.903Z,22.08
2024-01-11T19:36:04.929Z,23.38
2024-01-11T19:38:31.923Z,22.13
2024-01-11T19:40:58.646Z,22.25
2024-01-11T19:43:25.302Z,23.95
2024-01-11T19:45:52.029Z,25.00
2024-01-11T19:48:19.077Z,23.58
2024-01-11T19:50:46.083Z,21.38
2024-01-11T19:53:12.938Z,22.02
2024-01-11T19:55:39.676Z,22.35
2024-01-11T19:58:06.610Z,19.65
2024-01-11T20:00:33.406Z,21.92
2024-01-11T20:03:00.233Z,20.13
2024-01-11T20:05:27.264Z,17.85
2024-01-11T20:07:54.022Z,22.52
2024-01-11T20:10:20.743Z,20.92
2024-01-11T20:12:47.480Z,21.00
2024-01-11T20:15:14.330Z,22.10
2024-01-11T20:17:41.216Z,21.17
2024-01-11T20:20:08.309Z,17.25
2024-01-11T20:22:35.072Z,17.80
2024-01-11T20:25:01.773Z,16.75
2024-01-11T20:27:28.490Z,20.15
2024-01-11T20:29:55.331Z,19.15
2024-01-11T20:32:22.067Z,17.00
2024-01-11T20:34:49.093Z,15.52
2024-01-11T20:37:15.839Z,19.83
2024-01-11T20:39:42.562Z,18.83
2024-01-11T20:42:09.403Z,19.70
2024-01-11T20:44:39.422Z,18.70
2024-01-11T20:47:06.147Z,21.83
2024-01-11T20:49:33.049Z,18.08
2024-01-11T20:51:59.849Z,17.33
2024-01-11T20:54:26.591Z,18.10
2024-01-11T20:56:53.576Z,19.85
2024-01-11T20:59:20.264Z,18.17
2024-01-11T21:01:46.985Z,16.75
2024-01-11T21:04:13.719Z,14.45
2024-01-11T21:06:40.564Z,13.90
2024-01-11T21:09:07.492Z,18.25
2024-01-11T21:11:34.594Z,13.63
2024-01-11T21:14:01.311Z,14.27
2024-01-11T21:16:28.884Z,13.30
2024-01-11T21:18:55.770Z,16.13
2024-01-11T21:21:22.643Z,17.83
2024-01-11T21:23:50.704Z,15.23
2024-01-11T21:26:17.514Z,18.27
2024-01-11T21:28:44.296Z,15.25
2024-01-11T21:31:11.130Z,12.57
2024-01-11T21:33:43.630Z,15.40
2024-01-11T21:36:11.090Z,13.10
2024-01-11T21:38:37.833Z,12.90
2024-01-11T21:41:04.749Z,12.63
2024-01-11T21:43:31.956Z,11.80
2024-01-11T21:45:58.957Z,14.50
2024-01-11T21:48:25.777Z,12.63
2024-01-11T21:50:52.560Z,11.95
2024-01-11T21:53:19.326Z,12.48
2024-01-11T21:55:46.100Z,13.63
2024-01-11T21:58:12.816Z,15.10
2024-01-11T22:00:39.517Z,13.02
2024-01-11T22:03:06.362Z,14.00
2024-01-11T22:05:35.881Z,13.35
2024-01-11T22:08:02.619Z,12.85
2024-01-11T22:10:29.384Z,14.23
2024-01-11T22:12:56.203Z,11.73
2024-01-11T22:15:22.909Z,11.38
2024-01-11T22:17:49.720Z,12.07
2024-01-11T22:20:16.796Z,11.52
2024-01-11T22:22:43.658Z,12.18
2024-01-11T22:25:10.406Z,11.18
2024-01-11T22:27:37.151Z,9.35
2024-01-11T22:30:05.168Z,8.93
2024-01-11T22:32:31.958Z,9.73
2024-01-11T22:34:58.739Z,7.72
2024-01-11T22:37:25.438Z,7.10
2024-01-11T22:39:52.224Z,8.25
2024-01-11T22:42:18.916Z,8.27
2024-01-11T22:44:45.646Z,10.13
2024-01-11T22:47:12.424Z,8.45
2024-01-11T22:49:39.190Z,7.80
2024-01-11T22:52:07.728Z,7.53
2024-01-11T22:54:35.151Z,9.50
2024-01-11T22:57:02.557Z,8.80
2024-01-11T23:01:59.083Z,10.93
2024-01-11T23:04:25.826Z,8.45
2024-01-11T23:06:52.568Z,9.25
2024-01-11T23:09:19.381Z,9.65
2024-01-11T23:11:46.383Z,11.20
2024-01-11T23:14:13.149Z,8.83
2024-01-11T23:16:40.540Z,11.27
2024-01-11T23:19:07.437Z,9.40
2024-01-11T23:21:34.243Z,8.87
2024-01-11T23:24:00.966Z,8.10
2024-01-11T23:26:27.729Z,7.90
2024-01-11T23:28:54.550Z,11.52
2024-01-11T23:31:21.296Z,9.55
2024-01-11T23:33:48.131Z,9.38
2024-01-11T23:36:14.900Z,9.27
2024-01-11T23:38:42.013Z,11.20
2024-01-11T23:41:08.953Z,9.90
2024-01-11T23:43:35.703Z,10.05
2024-01-11T23:46:02.413Z,9.50
2024-01-11T23:48:29.352Z,7.90
2024-01-11T23:50:56.239Z,9.10
2024-01-11T23:53:23.064Z,10.73
2024-01-11T23:55:49.836Z,10.48
2024-01-11T23:58:16.558Z,9.88
